Archival Weather

Chicago O'Hare International

Chicago, Illinois (KORD)

Report from: Wednesday, December 21, 2022 10:51 PM CST
Current time: Friday, June 21, 2024 1:51 AM CDT

Current weather – Weather history – Daily summaries
Weather forecast

Present weatherMist
Temperature0.0°C (32.0°F)
Wind chill-4.0°C (24.8°F)
Dew point-3.3°C (26.1°F)
Winds 7 kts (3.6 m/s, 8.1 mph) Southeast (140°)
Visibility6 mi. (9.7 km)
Clouds Ceiling: Broken clouds 7,500 ft. (2,286 m)
Altimeter30.08 in.Hg (1019 mB)
Relative humidity78 %
Density altitude-1,975 ft. (-602 m)
Sea-level pressure102.0 kPa (1020 mB, 30.11 in.Hg)
Remarks Automated weather observing station with precipitation discriminator
Flight conditions Visual Meteorological Conditions
Raw dataKORD 220451Z 14007KT 6SM BR BKN075 00/M03 A3008 RMK AO2 SLP196 T00001033
An error has occurred. This application may no longer respond until reloaded. Reload 🗙